Terminal Aerodrome Forecast
Issued by NWS

Home | Current Version | Previous Version | Text Only | Print | Product List | Glossary On
Versions: 1 2 3 4 5 6 7 8 9 10 11 12 13 14 15 16 17 18
000
FTAK31 PAJN 300759 AAB
TAFAPG
TAF AMD
PAPG 300759Z 3008/3106 VRB04KT P6SM VCSH SCT020 OVC025
      TEMPO 3008/3012 SCT025 BKN035
     FM301800 VRB04KT P6SM -RA BKN020 OVC050
      AMD LTD TO CLD VIS AND WIND 3006/3015=

USA.gov is the U.S. government's official web portal to all federal, state and local government web resources and services.